Tamanrasset, Algeria
Current Conditions -  °F | °C
As of 4:00 AM on Sunday 23 Nov 2014 (Local Time) from DAAT Reporting Station
Clear Clear  
Wind Chill: 57°   Ceiling: Unl
Heat Index: 57°   Visibility: 6mi
Dew Point: 28°   Wind: 6mph
Humidity: 33%   Direction: 10°N
Pressure: 30.24"   Gusts: NA
Location:  22.78°N, 5.52°E
Report Text: DAAT 230300Z 01005KT CAVOK 14/M02 Q1024
Loading
Personal Weather Stations






























Interactive Weather Map New forecast layout! Learn more

10-Day Weather Forecast

Advertisements
Track Severe Weather on mobile